createdAt,value
2022-12-11T00:01:01.369Z,-2.61
2022-12-11T00:03:29.371Z,-2.61
2022-12-11T00:05:57.427Z,-2.60
2022-12-11T00:08:26.954Z,-2.59
2022-12-11T00:10:54.951Z,-2.60
2022-12-11T00:13:22.997Z,-2.63
2022-12-11T00:15:50.955Z,-2.65
2022-12-11T00:18:21.356Z,-2.67
2022-12-11T00:20:49.368Z,-2.67
2022-12-11T00:23:17.607Z,-2.68
2022-12-11T00:25:48.455Z,-2.71
2022-12-11T00:28:18.858Z,-2.72
2022-12-11T00:30:47.624Z,-2.75
2022-12-11T00:33:16.659Z,-2.74
2022-12-11T00:35:46.707Z,-2.75
2022-12-11T00:38:16.554Z,-2.76
2022-12-11T00:40:44.768Z,-2.79
2022-12-11T00:43:14.454Z,-2.82
2022-12-11T00:45:44.570Z,-2.83
2022-12-11T00:48:13.768Z,-2.82
2022-12-11T00:50:43.272Z,-2.86
2022-12-11T00:53:11.425Z,-2.84
2022-12-11T00:55:40.747Z,-2.87
2022-12-11T00:58:09.258Z,-2.88
2022-12-11T01:00:38.796Z,-2.88
2022-12-11T01:03:07.522Z,-2.89
2022-12-11T01:06:00.816Z,-2.86
2022-12-11T01:08:30.793Z,-2.83
2022-12-11T01:11:02.770Z,-2.84
2022-12-11T01:13:30.802Z,-2.85
2022-12-11T01:16:00.239Z,-2.86
2022-12-11T01:18:28.293Z,-2.89
2022-12-11T01:20:56.497Z,-2.87
2022-12-11T01:23:24.582Z,-2.89
2022-12-11T01:25:52.553Z,-2.90
2022-12-11T01:28:20.591Z,-2.93
2022-12-11T01:30:48.666Z,-2.91
2022-12-11T01:33:18.046Z,-2.95
2022-12-11T01:35:46.040Z,-2.92
2022-12-11T01:38:14.004Z,-2.97
2022-12-11T01:40:53.812Z,-2.97
2022-12-11T01:43:21.884Z,-2.97
2022-12-11T01:46:14.467Z,-2.98
2022-12-11T01:48:43.868Z,-2.98
2022-12-11T01:51:11.894Z,-2.97
2022-12-11T01:53:44.499Z,-3.01
2022-12-11T01:56:12.791Z,-3.04
2022-12-11T01:58:47.178Z,-3.02
2022-12-11T02:01:21.857Z,-2.99
2022-12-11T02:03:51.900Z,-3.02
2022-12-11T02:06:32.956Z,-3.02
2022-12-11T02:09:01.712Z,-3.04
2022-12-11T02:11:39.890Z,-3.02
2022-12-11T02:14:18.669Z,-3.04
2022-12-11T02:16:51.814Z,-3.06
2022-12-11T02:19:40.476Z,-3.05
2022-12-11T02:22:16.077Z,-3.08
2022-12-11T02:24:59.219Z,-3.10
2022-12-11T02:27:36.794Z,-3.10
2022-12-11T02:30:09.491Z,-3.10
2022-12-11T02:32:42.084Z,-3.05
2022-12-11T02:35:16.273Z,-3.09
2022-12-11T02:37:48.115Z,-3.13
2022-12-11T02:40:20.446Z,-3.11
2022-12-11T02:42:49.852Z,-3.14
2022-12-11T02:45:21.152Z,-3.13
2022-12-11T02:47:50.364Z,-3.14
2022-12-11T02:50:23.456Z,-3.14
2022-12-11T02:52:55.823Z,-3.16
2022-12-11T02:55:27.446Z,-3.14
2022-12-11T02:58:01.046Z,-3.15
2022-12-11T03:00:30.592Z,-3.16
2022-12-11T03:02:59.387Z,-3.16
2022-12-11T03:05:28.613Z,-3.18
2022-12-11T03:07:57.177Z,-3.18
2022-12-11T03:10:25.742Z,-3.17
2022-12-11T03:12:56.601Z,-3.16
2022-12-11T03:15:34.393Z,-3.15
2022-12-11T03:18:07.690Z,-3.16
2022-12-11T03:20:41.619Z,-3.14
2022-12-11T03:23:15.579Z,-3.14
2022-12-11T03:25:51.329Z,-3.15
2022-12-11T03:28:24.780Z,-3.13
2022-12-11T03:30:55.400Z,-3.12
2022-12-11T03:33:27.529Z,-3.14
2022-12-11T03:35:58.587Z,-3.12
2022-12-11T03:38:29.466Z,-3.13
2022-12-11T03:41:00.883Z,-3.13
2022-12-11T03:43:32.063Z,-3.14
2022-12-11T03:46:02.725Z,-3.14
2022-12-11T03:48:34.939Z,-3.15
2022-12-11T03:51:06.502Z,-3.15
2022-12-11T03:53:36.448Z,-3.17
2022-12-11T03:56:07.312Z,-3.20
2022-12-11T03:58:35.589Z,-3.19
2022-12-11T04:01:05.213Z,-3.21
2022-12-11T04:03:33.418Z,-3.17
2022-12-11T04:06:01.402Z,-3.20
2022-12-11T04:08:29.477Z,-3.22
2022-12-11T04:11:11.429Z,-3.21
2022-12-11T04:13:40.458Z,-3.21
2022-12-11T04:16:09.219Z,-3.21
2022-12-11T04:18:55.564Z,-3.25
2022-12-11T04:21:44.660Z,-3.27
2022-12-11T04:24:16.148Z,-3.29
2022-12-11T04:26:44.922Z,-3.27
2022-12-11T04:29:12.988Z,-3.31
2022-12-11T04:31:42.361Z,-3.33
2022-12-11T04:34:10.559Z,-3.32
2022-12-11T04:36:38.848Z,-3.33
2022-12-11T04:39:07.380Z,-3.36
2022-12-11T04:41:37.169Z,-3.38
2022-12-11T04:44:05.679Z,-3.37
2022-12-11T04:46:34.278Z,-3.37
2022-12-11T04:49:03.747Z,-3.37
2022-12-11T04:51:34.132Z,-3.35
2022-12-11T04:54:02.077Z,-3.34
2022-12-11T04:56:30.013Z,-3.31
2022-12-11T04:58:58.007Z,-3.32
2022-12-11T05:01:26.100Z,-3.31
2022-12-11T05:03:54.141Z,-3.31
2022-12-11T05:06:23.538Z,-3.31
2022-12-11T05:08:51.661Z,-3.29
2022-12-11T05:11:19.681Z,-3.32
2022-12-11T05:13:47.942Z,-3.35
2022-12-11T05:16:17.874Z,-3.34
2022-12-11T05:19:10.794Z,-3.34
2022-12-11T05:21:40.317Z,-3.33
2022-12-11T05:24:09.012Z,-3.35
2022-12-11T05:27:01.956Z,-3.35
2022-12-11T05:29:30.018Z,-3.35
2022-12-11T05:31:57.998Z,-3.35
2022-12-11T05:34:26.022Z,-3.35
2022-12-11T05:36:55.374Z,-3.38
2022-12-11T05:39:23.498Z,-3.38
2022-12-11T05:41:51.481Z,-3.39
2022-12-11T05:44:19.744Z,-3.40
2022-12-11T05:46:47.950Z,-3.33
2022-12-11T05:49:19.760Z,-3.32
2022-12-11T05:51:48.600Z,-3.29
2022-12-11T05:54:17.971Z,-3.25
2022-12-11T05:56:46.013Z,-3.21
2022-12-11T05:59:13.962Z,-3.16
2022-12-11T06:01:43.967Z,-3.13
2022-12-11T06:04:13.737Z,-3.07
2022-12-11T06:06:43.750Z,-3.03
2022-12-11T06:09:14.935Z,-3.01
2022-12-11T06:11:44.536Z,-2.95
2022-12-11T06:14:13.930Z,-2.91
2022-12-11T06:16:41.979Z,-2.86
2022-12-11T06:19:14.746Z,-2.82
2022-12-11T06:21:42.889Z,-2.77
2022-12-11T06:24:12.390Z,-2.72
2022-12-11T06:26:40.398Z,-2.67
2022-12-11T06:29:13.007Z,-2.61
2022-12-11T06:31:41.574Z,-2.56
2022-12-11T06:34:10.040Z,-2.51
2022-12-11T06:36:38.006Z,-2.47
2022-12-11T06:39:05.985Z,-2.41
2022-12-11T06:41:33.951Z,-2.33
2022-12-11T06:44:02.300Z,-2.29
2022-12-11T06:46:31.699Z,-2.30
2022-12-11T06:49:25.086Z,-2.28
2022-12-11T06:51:53.064Z,-2.21
2022-12-11T06:54:21.033Z,-2.20
2022-12-11T06:56:49.102Z,-2.18
2022-12-11T06:59:17.127Z,-2.14
2022-12-11T07:01:46.657Z,-2.14
2022-12-11T07:04:14.696Z,-2.10
2022-12-11T07:06:42.829Z,-2.12
2022-12-11T07:09:11.159Z,-2.09
2022-12-11T07:11:39.205Z,-2.05
2022-12-11T07:14:33.779Z,-2.08
2022-12-11T07:17:03.422Z,-2.05
2022-12-11T07:19:32.589Z,-2.07
2022-12-11T07:22:00.644Z,-2.09
2022-12-11T07:24:28.604Z,-2.02
2022-12-11T07:26:56.580Z,-2.03
2022-12-11T07:29:24.552Z,-2.07
2022-12-11T07:31:52.825Z,-2.06
2022-12-11T07:34:22.374Z,-2.02
2022-12-11T07:36:50.438Z,-2.04
2022-12-11T07:39:18.424Z,-2.09
2022-12-11T07:41:47.011Z,-2.05
2022-12-11T07:44:16.980Z,-1.99
2022-12-11T07:46:44.940Z,-1.98
2022-12-11T07:49:13.053Z,-1.97
2022-12-11T07:52:07.636Z,-2.04
2022-12-11T07:54:35.665Z,-2.07
2022-12-11T07:57:03.780Z,-2.08
2022-12-11T07:59:34.242Z,-2.07
2022-12-11T08:02:02.283Z,-2.00
2022-12-11T08:04:30.501Z,-2.03
2022-12-11T08:06:58.935Z,-2.07
2022-12-11T08:09:28.275Z,-2.10
2022-12-11T08:11:56.279Z,-2.05
2022-12-11T08:14:24.430Z,-2.03
2022-12-11T08:16:52.460Z,-2.02
2022-12-11T08:19:20.498Z,-2.00
2022-12-11T08:21:48.523Z,-2.04
2022-12-11T08:24:20.244Z,-2.00
2022-12-11T08:26:49.704Z,-1.99
2022-12-11T08:29:17.816Z,-2.01
2022-12-11T08:31:45.835Z,-2.04
2022-12-11T08:34:14.250Z,-2.06
2022-12-11T08:36:42.603Z,-2.02
2022-12-11T08:39:10.705Z,-2.00
2022-12-11T08:41:38.864Z,-2.02
2022-12-11T08:44:16.559Z,-1.96
2022-12-11T08:46:45.389Z,-2.03
2022-12-11T08:49:13.471Z,-1.99
2022-12-11T08:51:41.440Z,-1.90
2022-12-11T08:54:10.918Z,-1.91
2022-12-11T08:56:38.914Z,-1.88
2022-12-11T08:59:08.234Z,-1.89
2022-12-11T09:01:36.306Z,-1.87
2022-12-11T09:04:04.546Z,-1.94
2022-12-11T09:06:34.451Z,-1.90
2022-12-11T09:09:30.418Z,-1.93
2022-12-11T09:11:59.328Z,-1.93
2022-12-11T09:14:29.348Z,-1.89
2022-12-11T09:16:57.715Z,-1.86
2022-12-11T09:19:30.614Z,-1.88
2022-12-11T09:22:00.200Z,-1.86
2022-12-11T09:24:28.473Z,-1.84
2022-12-11T09:26:56.495Z,-1.77
2022-12-11T09:29:24.467Z,-1.91
2022-12-11T09:31:53.826Z,-1.88
2022-12-11T09:34:28.932Z,-1.83
2022-12-11T09:36:58.289Z,-1.83
2022-12-11T09:39:26.362Z,-1.82
2022-12-11T09:42:01.266Z,-1.79
2022-12-11T09:44:55.483Z,-1.75
2022-12-11T09:47:32.753Z,-1.73
2022-12-11T09:50:12.028Z,-1.84
2022-12-11T09:53:06.957Z,-1.79
2022-12-11T09:55:44.207Z,-1.77
2022-12-11T09:58:24.273Z,-1.77
2022-12-11T10:00:58.983Z,-1.68
2022-12-11T10:03:44.815Z,-1.67
2022-12-11T10:06:20.400Z,-1.65
2022-12-11T10:08:59.129Z,-1.61
2022-12-11T10:11:42.883Z,-1.62
2022-12-11T10:14:20.925Z,-1.56
2022-12-11T10:16:53.281Z,-1.65
2022-12-11T10:19:27.663Z,-1.61
2022-12-11T10:21:56.740Z,-1.58
2022-12-11T10:25:09.397Z,-1.48
2022-12-11T10:27:26.791Z,-1.42
2022-12-11T10:30:02.265Z,-1.56
2022-12-11T10:32:43.413Z,-1.50
2022-12-11T10:35:18.973Z,-1.47
2022-12-11T10:37:47.171Z,-1.49
2022-12-11T10:40:15.770Z,-1.46
2022-12-11T10:43:09.278Z,-1.50
2022-12-11T10:45:37.534Z,-1.57
2022-12-11T10:48:07.184Z,-1.46
2022-12-11T10:50:37.149Z,-1.46
2022-12-11T10:53:06.264Z,-1.44
2022-12-11T10:55:53.047Z,-1.42
2022-12-11T10:58:24.026Z,-1.43
2022-12-11T11:01:04.736Z,-1.46
2022-12-11T11:03:34.244Z,-1.32
2022-12-11T11:06:15.295Z,-1.39
2022-12-11T11:08:45.554Z,-1.35
2022-12-11T11:11:34.307Z,-1.40
2022-12-11T11:14:14.384Z,-1.38
2022-12-11T11:16:44.909Z,-1.39
2022-12-11T11:19:21.392Z,-1.31
2022-12-11T11:21:53.685Z,-1.28
2022-12-11T11:24:37.697Z,-1.23
2022-12-11T11:27:14.171Z,-1.26
2022-12-11T11:29:43.251Z,-1.19
2022-12-11T11:32:19.055Z,-1.15
2022-12-11T11:34:47.092Z,-1.17
2022-12-11T11:37:33.693Z,-1.19
2022-12-11T11:40:09.386Z,-1.19
2022-12-11T11:42:46.552Z,-1.11
2022-12-11T11:45:19.376Z,-1.14
2022-12-11T11:47:58.153Z,-1.12
2022-12-11T11:50:29.784Z,-1.07
2022-12-11T11:53:06.143Z,-1.00
2022-12-11T11:55:44.974Z,-1.16
2022-12-11T11:58:19.338Z,-1.19
2022-12-11T12:00:47.953Z,-1.14
2022-12-11T12:03:19.379Z,-1.19
2022-12-11T12:05:54.733Z,-1.16
2022-12-11T12:08:37.392Z,-1.30
2022-12-11T12:11:14.057Z,-1.23
2022-12-11T12:13:51.021Z,-1.24
2022-12-11T12:16:52.157Z,-1.12
2022-12-11T12:19:28.377Z,-1.10
2022-12-11T12:22:20.932Z,-1.03
2022-12-11T12:25:01.484Z,-1.05
2022-12-11T12:27:53.830Z,-0.98
2022-12-11T12:30:23.819Z,-0.96
2022-12-11T12:33:07.487Z,-0.86
2022-12-11T12:35:37.195Z,-0.87
2022-12-11T12:38:12.427Z,-0.80
2022-12-11T12:40:55.722Z,-0.82
2022-12-11T12:43:42.433Z,-0.84
2022-12-11T12:46:22.119Z,-0.80
2022-12-11T12:48:51.305Z,-0.75
2022-12-11T12:51:20.058Z,-0.74
2022-12-11T12:53:54.242Z,-0.71
2022-12-11T12:56:25.847Z,-0.72
2022-12-11T12:58:54.170Z,-0.71
2022-12-11T13:01:25.568Z,-0.76
2022-12-11T13:03:57.735Z,-0.63
2022-12-11T13:06:35.674Z,-0.61
2022-12-11T13:09:18.186Z,-0.59
2022-12-11T13:11:50.174Z,-0.52
2022-12-11T13:14:31.869Z,-0.53
2022-12-11T13:17:09.333Z,-0.48
2022-12-11T13:19:42.243Z,-0.45
2022-12-11T13:22:24.251Z,-0.48
2022-12-11T13:25:01.684Z,-0.42
2022-12-11T13:27:40.789Z,-0.52
2022-12-11T13:30:23.102Z,-0.41
2022-12-11T13:32:59.982Z,-0.34
2022-12-11T13:35:28.384Z,-0.33
2022-12-11T13:37:59.643Z,-0.36
2022-12-11T13:40:33.617Z,-0.27
2022-12-11T13:43:06.111Z,-0.24
2022-12-11T13:45:41.873Z,-0.19
2022-12-11T13:48:20.862Z,-0.17
2022-12-11T13:50:50.628Z,-0.16
2022-12-11T13:54:11.611Z,-0.11
2022-12-11T13:56:55.017Z,-0.11
2022-12-11T13:59:52.847Z,-0.05
2022-12-11T14:02:25.096Z,-0.05
2022-12-11T14:04:56.814Z,-0.07
2022-12-11T14:07:29.479Z,-0.05
2022-12-11T14:10:02.979Z,-0.05
2022-12-11T14:12:31.838Z,0.01
2022-12-11T14:15:04.556Z,0.00
2022-12-11T14:17:35.586Z,0.00
2022-12-11T14:20:07.704Z,0.08
2022-12-11T14:22:35.766Z,0.06
2022-12-11T14:25:19.483Z,-0.02
2022-12-11T14:27:50.607Z,-0.01
2022-12-11T14:30:24.217Z,0.06
2022-12-11T14:32:54.549Z,0.07
2022-12-11T14:35:27.530Z,0.05
2022-12-11T14:37:56.273Z,0.02
2022-12-11T14:40:29.270Z,0.07
2022-12-11T14:43:00.677Z,0.01
2022-12-11T14:45:35.641Z,0.01
2022-12-11T14:48:10.187Z,0.07
2022-12-11T14:50:43.593Z,0.04
2022-12-11T14:53:16.189Z,0.08
2022-12-11T14:55:44.983Z,0.14
2022-12-11T14:58:19.405Z,0.08
2022-12-11T15:00:59.032Z,0.14
2022-12-11T15:04:02.796Z,0.16
2022-12-11T15:06:33.147Z,0.18
2022-12-11T15:09:11.467Z,0.20
2022-12-11T15:11:39.540Z,0.25
2022-12-11T15:14:12.269Z,0.16
2022-12-11T15:16:43.251Z,0.18
2022-12-11T15:19:22.006Z,0.24
2022-12-11T15:21:50.327Z,0.28
2022-12-11T15:24:29.281Z,0.29
2022-12-11T15:27:01.806Z,0.30
2022-12-11T15:29:54.614Z,0.35
2022-12-11T15:32:24.559Z,0.34
2022-12-11T15:34:59.120Z,0.32
2022-12-11T15:37:29.374Z,0.34
2022-12-11T15:39:59.302Z,0.34
2022-12-11T15:42:30.187Z,0.37
2022-12-11T15:44:59.297Z,0.40
2022-12-11T15:47:31.071Z,0.31
2022-12-11T15:50:01.938Z,0.28
2022-12-11T15:52:31.031Z,0.31
2022-12-11T15:54:59.104Z,0.36
2022-12-11T15:57:27.252Z,0.32
2022-12-11T15:59:56.576Z,0.37
2022-12-11T16:02:26.756Z,0.40
2022-12-11T16:04:58.489Z,0.47
2022-12-11T16:07:27.605Z,0.40
2022-12-11T16:09:55.606Z,0.41
2022-12-11T16:12:23.592Z,0.41
2022-12-11T16:14:51.604Z,0.41
2022-12-11T16:17:20.028Z,0.41
2022-12-11T16:19:48.023Z,0.39
2022-12-11T16:22:17.673Z,0.43
2022-12-11T16:24:45.683Z,0.44
2022-12-11T16:27:17.352Z,0.47
2022-12-11T16:29:48.000Z,0.44
2022-12-11T16:32:16.114Z,0.49
2022-12-11T16:34:44.139Z,0.48
2022-12-11T16:38:01.747Z,0.49
2022-12-11T16:40:31.381Z,0.49
2022-12-11T16:42:59.434Z,0.49
2022-12-11T16:45:28.344Z,0.49
2022-12-11T16:47:56.459Z,0.52
2022-12-11T16:50:25.411Z,0.54
2022-12-11T16:52:53.365Z,0.55
2022-12-11T16:55:22.490Z,0.57
2022-12-11T16:57:51.853Z,0.57
2022-12-11T17:00:20.588Z,0.50
2022-12-11T17:02:48.656Z,0.60
2022-12-11T17:05:16.800Z,0.62
2022-12-11T17:07:44.929Z,0.60
2022-12-11T17:10:15.798Z,0.54
2022-12-11T17:12:43.917Z,0.52
2022-12-11T17:15:13.568Z,0.52
2022-12-11T17:17:43.189Z,0.60
2022-12-11T17:20:12.274Z,0.58
2022-12-11T17:22:40.621Z,0.58
2022-12-11T17:25:09.763Z,0.59
2022-12-11T17:27:37.883Z,0.60
2022-12-11T17:30:06.940Z,0.62
2022-12-11T17:32:36.647Z,0.60
2022-12-11T17:35:05.117Z,0.65
2022-12-11T17:37:33.710Z,0.57
2022-12-11T17:40:01.872Z,0.62
2022-12-11T17:42:29.836Z,0.63
2022-12-11T17:44:57.915Z,0.63
2022-12-11T17:47:26.046Z,0.60
2022-12-11T17:49:55.433Z,0.65
2022-12-11T17:52:23.577Z,0.70
2022-12-11T17:54:53.795Z,0.69
2022-12-11T17:57:22.177Z,0.64
2022-12-11T17:59:50.195Z,0.68
2022-12-11T18:02:18.199Z,0.69
2022-12-11T18:04:46.235Z,0.64
2022-12-11T18:07:16.126Z,0.67
2022-12-11T18:09:44.234Z,0.73
2022-12-11T18:12:12.336Z,0.77
2022-12-11T18:14:41.336Z,0.73
2022-12-11T18:17:09.400Z,0.77
2022-12-11T18:19:41.468Z,0.73
2022-12-11T18:22:17.582Z,0.70
2022-12-11T18:24:46.639Z,0.73
2022-12-11T18:27:15.209Z,0.77
2022-12-11T18:29:43.324Z,0.73
2022-12-11T18:32:11.449Z,0.78
2022-12-11T18:34:39.553Z,0.77
2022-12-11T18:37:08.376Z,0.73
2022-12-11T18:39:37.703Z,0.64
2022-12-11T18:42:31.634Z,0.66
2022-12-11T18:44:54.045Z,0.70
2022-12-11T18:47:22.324Z,0.63
2022-12-11T18:49:50.528Z,0.72
2022-12-11T18:52:44.171Z,0.68
2022-12-11T18:55:41.776Z,0.71
2022-12-11T18:58:09.781Z,0.60
2022-12-11T19:00:38.454Z,0.60
2022-12-11T19:03:06.818Z,0.63
2022-12-11T19:05:35.044Z,0.49
2022-12-11T19:08:03.980Z,0.44
2022-12-11T19:10:32.132Z,0.38
2022-12-11T19:13:01.477Z,0.48
2022-12-11T19:15:29.501Z,0.48
2022-12-11T19:17:57.532Z,0.42
2022-12-11T19:20:48.043Z,0.41
2022-12-11T19:23:13.639Z,0.36
2022-12-11T19:25:43.993Z,0.36
2022-12-11T19:28:14.032Z,0.44
2022-12-11T19:30:44.075Z,0.30
2022-12-11T19:33:12.137Z,0.21
2022-12-11T19:35:40.236Z,0.14
2022-12-11T19:38:09.367Z,0.20
2022-12-11T19:40:40.861Z,0.15
2022-12-11T19:43:09.091Z,0.16
2022-12-11T19:45:38.833Z,0.09
2022-12-11T19:48:07.217Z,0.14
2022-12-11T19:50:36.372Z,-0.01
2022-12-11T19:53:04.981Z,0.04
2022-12-11T19:55:33.704Z,0.10
2022-12-11T19:58:01.726Z,-0.03
2022-12-11T20:00:29.961Z,0.02
2022-12-11T20:02:59.434Z,0.04
2022-12-11T20:05:28.476Z,-0.01
2022-12-11T20:08:14.329Z,-0.08
2022-12-11T20:10:46.377Z,-0.09
2022-12-11T20:13:14.392Z,-0.12
2022-12-11T20:15:42.343Z,-0.09
2022-12-11T20:18:16.898Z,-0.18
2022-12-11T20:20:46.531Z,-0.20
2022-12-11T20:23:14.510Z,-0.17
2022-12-11T20:25:42.594Z,-0.20
2022-12-11T20:28:11.284Z,-0.24
2022-12-11T20:30:39.232Z,-0.25
2022-12-11T20:33:07.222Z,-0.31
2022-12-11T20:35:36.638Z,-0.24
2022-12-11T20:38:04.642Z,-0.23
2022-12-11T20:40:34.132Z,-0.30
2022-12-11T20:43:02.180Z,-0.32
2022-12-11T20:45:30.261Z,-0.30
2022-12-11T20:47:58.268Z,-0.41
2022-12-11T20:50:26.374Z,-0.37
2022-12-11T20:52:55.971Z,-0.42
2022-12-11T20:55:24.041Z,-0.39
2022-12-11T20:57:52.116Z,-0.41
2022-12-11T21:00:20.414Z,-0.39
2022-12-11T21:02:51.181Z,-0.47
2022-12-11T21:05:19.417Z,-0.47
2022-12-11T21:07:47.574Z,-0.54
2022-12-11T21:10:17.142Z,-0.58
2022-12-11T21:12:45.283Z,-0.53
2022-12-11T21:15:14.262Z,-0.56
2022-12-11T21:17:42.684Z,-0.54
2022-12-11T21:20:12.340Z,-0.53
2022-12-11T21:22:40.527Z,-0.58
2022-12-11T21:25:09.237Z,-0.56
2022-12-11T21:27:39.197Z,-0.54
2022-12-11T21:30:08.712Z,-0.58
2022-12-11T21:32:36.857Z,-0.53
2022-12-11T21:35:05.359Z,-0.56
2022-12-11T21:37:33.358Z,-0.53
2022-12-11T21:40:01.475Z,-0.56
2022-12-11T21:42:29.504Z,-0.53
2022-12-11T21:47:46.998Z,-0.47
2022-12-11T21:50:15.165Z,-0.49
2022-12-11T21:52:43.245Z,-0.47
2022-12-11T21:55:12.451Z,-0.47
2022-12-11T21:57:40.784Z,-0.44
2022-12-11T22:00:11.633Z,-0.46
2022-12-11T22:08:03.896Z,-0.42
2022-12-11T22:10:31.998Z,-0.39
2022-12-11T22:13:00.014Z,-0.46
2022-12-11T22:15:29.643Z,-0.48
2022-12-11T22:17:57.630Z,-0.37
2022-12-11T22:20:25.690Z,-0.41
2022-12-11T22:22:53.827Z,-0.38
2022-12-11T22:25:21.897Z,-0.48
2022-12-11T22:27:51.025Z,-0.31
2022-12-11T22:30:19.082Z,-0.35
2022-12-11T22:32:50.836Z,-0.31
2022-12-11T22:35:20.950Z,-0.32
2022-12-11T22:37:52.876Z,-0.39
2022-12-11T22:40:21.137Z,-0.35
2022-12-11T22:42:49.111Z,-0.29
2022-12-11T22:45:17.206Z,-0.27
2022-12-11T22:47:45.247Z,-0.33
2022-12-11T22:50:15.653Z,-0.29
2022-12-11T22:52:44.847Z,-0.32
2022-12-11T22:55:13.316Z,-0.31
2022-12-11T22:57:41.568Z,-0.32
2022-12-11T23:00:15.338Z,-0.29
2022-12-11T23:02:44.027Z,-0.26
2022-12-11T23:05:14.044Z,-0.25
2022-12-11T23:07:42.839Z,-0.22
2022-12-11T23:10:11.745Z,-0.24
2022-12-11T23:12:39.886Z,-0.20
2022-12-11T23:15:09.689Z,-0.20
2022-12-11T23:17:37.854Z,-0.17
2022-12-11T23:20:07.359Z,-0.17
2022-12-11T23:22:36.711Z,-0.15
2022-12-11T23:25:04.964Z,-0.12
2022-12-11T23:27:35.998Z,-0.16
2022-12-11T23:30:04.910Z,-0.13
2022-12-11T23:32:32.884Z,-0.12
2022-12-11T23:35:00.811Z,-0.11
2022-12-11T23:37:30.543Z,-0.17
2022-12-11T23:40:02.891Z,-0.11
2022-12-11T23:42:30.951Z,-0.13
2022-12-11T23:44:58.956Z,-0.12
2022-12-11T23:47:27.072Z,-0.13
2022-12-11T23:49:55.074Z,-0.12
2022-12-11T23:52:23.920Z,-0.10
2022-12-11T23:54:52.411Z,-0.11
2022-12-11T23:57:22.277Z,-0.11
2022-12-11T23:59:50.301Z,-0.13
